createdAt,value
2022-12-26T00:00:23.530Z,22.15
2022-12-26T00:02:51.128Z,23.88
2022-12-26T00:05:17.655Z,20.33
2022-12-26T00:07:44.577Z,24.13
2022-12-26T00:10:11.375Z,25.35
2022-12-26T00:12:37.873Z,24.35
2022-12-26T00:15:04.724Z,29.40
2022-12-26T00:17:31.209Z,28.83
2022-12-26T00:19:57.705Z,29.38
2022-12-26T00:22:24.259Z,33.30
2022-12-26T00:24:50.758Z,28.45
2022-12-26T00:27:17.336Z,29.88
2022-12-26T00:29:43.871Z,29.60
2022-12-26T00:32:10.377Z,28.45
2022-12-26T00:34:36.992Z,28.67
2022-12-26T00:37:03.551Z,27.30
2022-12-26T00:39:30.244Z,28.83
2022-12-26T00:41:56.759Z,29.02
2022-12-26T00:44:23.264Z,29.80
2022-12-26T00:46:49.860Z,30.00
2022-12-26T00:49:16.426Z,26.38
2022-12-26T00:51:43.032Z,29.25
2022-12-26T00:54:09.638Z,26.38
2022-12-26T00:56:36.193Z,28.25
2022-12-26T00:59:03.024Z,28.42
2022-12-26T01:01:31.230Z,30.85
2022-12-26T01:03:58.392Z,29.55
2022-12-26T01:06:24.976Z,32.72
2022-12-26T01:08:52.384Z,31.45
2022-12-26T01:11:40.026Z,31.98
2022-12-26T01:14:15.512Z,33.30
2022-12-26T01:16:46.807Z,32.78
2022-12-26T01:19:13.851Z,34.63
2022-12-26T01:21:42.007Z,33.20
2022-12-26T01:24:08.772Z,32.53
2022-12-26T01:26:35.348Z,33.45
2022-12-26T01:29:01.967Z,32.15
2022-12-26T01:31:28.532Z,31.35
2022-12-26T01:33:55.128Z,32.50
2022-12-26T01:36:21.716Z,34.75
2022-12-26T01:38:48.251Z,31.65
2022-12-26T01:41:17.636Z,31.75
2022-12-26T01:44:03.987Z,33.58
2022-12-26T01:46:32.472Z,31.30
2022-12-26T01:49:06.558Z,31.30
2022-12-26T01:51:39.041Z,30.02
2022-12-26T01:54:41.369Z,29.95
2022-12-26T01:56:55.025Z,34.58
2022-12-26T01:59:30.983Z,27.45
2022-12-26T02:02:00.136Z,30.08
2022-12-26T02:04:49.560Z,31.70
2022-12-26T02:07:17.133Z,30.70
2022-12-26T02:09:44.139Z,34.83
2022-12-26T02:12:37.479Z,37.33
2022-12-26T02:15:11.975Z,34.50
2022-12-26T02:17:40.075Z,33.60
2022-12-26T02:20:18.597Z,36.80
2022-12-26T02:22:48.239Z,33.55
2022-12-26T02:25:53.216Z,34.15
2022-12-26T02:28:56.653Z,37.47
2022-12-26T02:31:32.724Z,36.83
2022-12-26T02:34:15.595Z,32.17
2022-12-26T02:40:03.992Z,38.55
2022-12-26T02:42:59.664Z,38.28
2022-12-26T02:45:57.584Z,36.58
2022-12-26T02:48:51.634Z,34.97
2022-12-26T02:51:48.163Z,35.28
2022-12-26T02:54:52.639Z,34.13
2022-12-26T02:57:42.379Z,37.33
2022-12-26T03:00:34.618Z,40.10
2022-12-26T03:03:44.012Z,35.92
2022-12-26T03:06:38.397Z,32.15
2022-12-26T03:09:29.501Z,37.08
2022-12-26T03:12:53.728Z,36.25
2022-12-26T03:15:23.153Z,31.65
2022-12-26T03:17:55.381Z,35.60
2022-12-26T03:20:30.929Z,35.75
2022-12-26T03:23:08.197Z,36.38
2022-12-26T03:25:54.316Z,37.53
2022-12-26T03:28:25.442Z,32.55
2022-12-26T03:30:53.357Z,31.60
2022-12-26T03:33:44.110Z,37.00
2022-12-26T03:36:29.032Z,32.58
2022-12-26T03:39:46.660Z,31.48
2022-12-26T03:42:42.194Z,30.40
2022-12-26T03:45:38.737Z,30.33
2022-12-26T03:48:40.309Z,25.88
2022-12-26T03:51:33.928Z,29.23
2022-12-26T03:54:34.241Z,27.63
2022-12-26T03:57:27.387Z,24.17
2022-12-26T04:00:20.342Z,25.95
2022-12-26T04:03:08.586Z,24.77
2022-12-26T04:05:58.338Z,22.38
2022-12-26T04:08:50.081Z,23.77
2022-12-26T04:11:37.252Z,21.45
2022-12-26T04:14:29.519Z,20.13
2022-12-26T04:17:21.992Z,17.73
2022-12-26T04:20:06.792Z,18.00
2022-12-26T04:23:01.566Z,16.55
2022-12-26T04:26:13.481Z,15.82
2022-12-26T04:28:58.589Z,13.52
2022-12-26T04:31:51.805Z,15.07
2022-12-26T04:34:56.732Z,12.65
2022-12-26T04:37:44.552Z,11.73
2022-12-26T04:40:38.446Z,12.27
2022-12-26T04:43:49.562Z,11.48
2022-12-26T04:46:15.171Z,10.00
2022-12-26T04:49:03.376Z,11.02
2022-12-26T04:51:29.920Z,10.68
2022-12-26T04:53:56.522Z,10.23
2022-12-26T04:56:23.048Z,9.25
2022-12-26T04:58:49.613Z,10.95
2022-12-26T05:01:35.057Z,10.45
2022-12-26T05:04:20.257Z,9.63
2022-12-26T05:07:05.379Z,9.95
2022-12-26T05:09:35.763Z,9.32
2022-12-26T05:12:08.443Z,9.50
2022-12-26T05:17:22.228Z,10.15
2022-12-26T05:20:07.546Z,11.77
2022-12-26T05:22:55.385Z,9.55
2022-12-26T05:25:44.557Z,10.23
2022-12-26T05:28:34.148Z,9.20
2022-12-26T05:31:04.864Z,10.35
2022-12-26T05:33:49.809Z,9.65
2022-12-26T05:36:19.294Z,8.70
2022-12-26T05:38:46.299Z,10.80
2022-12-26T05:41:12.827Z,9.15
2022-12-26T05:43:39.426Z,8.95
2022-12-26T05:46:06.277Z,8.80
2022-12-26T05:48:33.852Z,8.55
2022-12-26T05:51:02.829Z,8.40
2022-12-26T05:53:30.545Z,7.85
2022-12-26T05:56:06.703Z,10.05
2022-12-26T05:58:33.806Z,8.48
2022-12-26T06:01:20.313Z,8.65
2022-12-26T06:03:56.400Z,8.23
2022-12-26T06:06:24.716Z,8.25
2022-12-26T06:08:52.935Z,8.23
2022-12-26T06:11:20.254Z,11.35
2022-12-26T06:13:46.723Z,8.43
2022-12-26T06:16:15.526Z,7.68
2022-12-26T06:18:42.296Z,9.05
2022-12-26T06:21:15.862Z,9.15
2022-12-26T06:23:42.600Z,8.93
2022-12-26T06:26:10.368Z,8.43
2022-12-26T06:28:37.645Z,8.45
2022-12-26T06:31:22.167Z,10.77
2022-12-26T06:33:54.232Z,10.30
2022-12-26T06:36:23.716Z,9.48
2022-12-26T06:38:50.417Z,9.57
2022-12-26T06:41:19.246Z,8.88
2022-12-26T06:43:45.923Z,9.60
2022-12-26T06:46:15.857Z,9.43
2022-12-26T06:48:42.727Z,10.38
2022-12-26T06:51:11.957Z,10.13
2022-12-26T06:53:39.090Z,8.65
2022-12-26T06:56:11.187Z,11.57
2022-12-26T06:58:38.017Z,12.90
2022-12-26T07:01:10.367Z,10.05
2022-12-26T07:03:37.352Z,8.85
2022-12-26T07:06:12.418Z,7.13
2022-12-26T07:08:39.018Z,9.00
2022-12-26T07:11:12.505Z,8.13
2022-12-26T07:13:38.980Z,7.50
2022-12-26T07:16:05.702Z,8.20
2022-12-26T07:18:32.359Z,9.48
2022-12-26T07:21:19.375Z,8.18
2022-12-26T07:23:48.147Z,6.80
2022-12-26T07:26:14.642Z,6.75
2022-12-26T07:28:41.234Z,9.43
2022-12-26T07:31:07.959Z,6.93
2022-12-26T07:33:34.702Z,7.00
2022-12-26T07:36:03.399Z,7.20
2022-12-26T07:38:30.097Z,6.90
2022-12-26T07:40:57.729Z,7.20
2022-12-26T07:43:25.300Z,6.82
2022-12-26T07:45:52.640Z,7.70
2022-12-26T07:48:19.314Z,7.97
2022-12-26T07:50:47.317Z,8.13
2022-12-26T07:53:14.982Z,6.65
2022-12-26T07:55:42.017Z,8.38
2022-12-26T07:58:08.616Z,7.28
2022-12-26T08:00:35.133Z,5.97
2022-12-26T08:03:07.480Z,9.82
2022-12-26T08:05:34.938Z,5.70
2022-12-26T08:08:01.488Z,6.63
2022-12-26T08:10:28.103Z,6.07
2022-12-26T08:12:54.719Z,5.28
2022-12-26T08:15:21.368Z,9.52
2022-12-26T08:17:47.936Z,8.85
2022-12-26T08:20:14.539Z,5.20
2022-12-26T08:22:41.192Z,7.20
2022-12-26T08:25:08.429Z,6.60
2022-12-26T08:27:35.184Z,7.00
2022-12-26T08:30:01.933Z,5.97
2022-12-26T08:32:28.510Z,6.22
2022-12-26T08:34:55.021Z,6.72
2022-12-26T08:37:26.456Z,6.93
2022-12-26T08:39:53.602Z,7.55
2022-12-26T08:42:23.222Z,9.02
2022-12-26T08:44:49.887Z,4.80
2022-12-26T08:47:16.451Z,5.72
2022-12-26T08:49:43.374Z,9.07
2022-12-26T08:52:09.960Z,5.50
2022-12-26T08:54:37.717Z,5.13
2022-12-26T08:57:04.342Z,4.43
2022-12-26T08:59:30.930Z,5.85
2022-12-26T09:01:58.218Z,8.57
2022-12-26T09:04:24.801Z,6.22
2022-12-26T09:06:51.493Z,7.63
2022-12-26T09:09:19.391Z,5.80
2022-12-26T09:11:46.002Z,4.25
2022-12-26T09:14:13.081Z,4.88
2022-12-26T09:16:49.175Z,6.22
2022-12-26T09:19:17.644Z,2.70
2022-12-26T09:21:44.921Z,7.22
2022-12-26T09:24:14.300Z,10.13
2022-12-26T09:26:41.535Z,4.72
2022-12-26T09:29:10.791Z,3.38
2022-12-26T09:31:37.712Z,5.13
2022-12-26T09:34:05.795Z,4.95
2022-12-26T09:36:37.765Z,3.00
2022-12-26T09:39:04.434Z,4.35
2022-12-26T09:42:24.476Z,7.05
2022-12-26T09:45:17.413Z,4.18
2022-12-26T09:47:56.666Z,3.13
2022-12-26T09:50:31.675Z,9.85
2022-12-26T09:53:03.316Z,4.65
2022-12-26T09:55:42.641Z,4.72
2022-12-26T09:58:35.607Z,3.95
2022-12-26T10:01:13.803Z,7.65
2022-12-26T10:03:44.954Z,4.95
2022-12-26T10:06:23.808Z,7.43
2022-12-26T10:09:05.343Z,5.50
2022-12-26T10:12:02.176Z,6.53
2022-12-26T10:14:53.017Z,6.82
2022-12-26T10:17:37.697Z,5.15
2022-12-26T10:20:17.799Z,4.50
2022-12-26T10:22:56.410Z,4.78
2022-12-26T10:25:45.457Z,4.38
2022-12-26T10:28:41.228Z,5.50
2022-12-26T10:31:26.748Z,4.28
2022-12-26T10:34:10.728Z,9.60
2022-12-26T10:36:43.106Z,7.57
2022-12-26T10:39:25.054Z,6.90
2022-12-26T10:41:55.611Z,4.60
2022-12-26T10:44:27.902Z,4.25
2022-12-26T10:47:03.817Z,5.50
2022-12-26T10:49:30.421Z,6.50
2022-12-26T10:52:00.577Z,8.35
2022-12-26T10:54:29.263Z,9.27
2022-12-26T10:56:57.596Z,9.88
2022-12-26T10:59:35.999Z,9.20
2022-12-26T11:02:20.040Z,5.55
2022-12-26T11:05:22.113Z,8.00
2022-12-26T11:08:05.123Z,4.93
2022-12-26T11:10:31.908Z,4.78
2022-12-26T11:13:06.261Z,10.93
2022-12-26T11:15:35.189Z,9.55
2022-12-26T11:18:28.078Z,9.43
2022-12-26T11:20:54.758Z,7.70
2022-12-26T11:23:24.884Z,10.00
2022-12-26T11:26:02.138Z,8.13
2022-12-26T11:28:37.099Z,16.05
2022-12-26T11:31:07.252Z,13.05
2022-12-26T11:33:43.571Z,7.22
2022-12-26T11:36:16.106Z,11.43
2022-12-26T11:38:45.869Z,15.55
2022-12-26T11:41:36.246Z,12.70
2022-12-26T11:44:13.189Z,12.07
2022-12-26T11:46:39.810Z,12.02
2022-12-26T11:49:15.580Z,12.75
2022-12-26T11:51:46.035Z,14.00
2022-12-26T11:54:31.110Z,7.47
2022-12-26T11:57:19.327Z,12.02
2022-12-26T11:59:47.424Z,7.22
2022-12-26T12:02:24.117Z,12.77
2022-12-26T12:04:53.495Z,8.23
2022-12-26T12:08:12.605Z,9.85
2022-12-26T12:10:49.683Z,13.85
2022-12-26T12:13:35.784Z,6.05
2022-12-26T12:16:21.260Z,14.63
2022-12-26T12:19:01.070Z,14.23
2022-12-26T12:21:40.109Z,17.02
2022-12-26T12:24:28.481Z,12.63
2022-12-26T12:27:08.385Z,9.55
2022-12-26T12:30:09.182Z,7.82
2022-12-26T12:32:57.012Z,8.55
2022-12-26T12:35:34.292Z,6.63
2022-12-26T12:38:33.669Z,11.30
2022-12-26T12:41:24.994Z,11.80
2022-12-26T12:44:11.772Z,11.30
2022-12-26T12:46:56.820Z,14.38
2022-12-26T12:49:44.662Z,10.23
2022-12-26T12:52:42.663Z,14.70
2022-12-26T12:55:29.289Z,26.70
2022-12-26T12:58:20.308Z,16.90
2022-12-26T13:00:52.386Z,14.27
2022-12-26T13:03:58.876Z,6.75
2022-12-26T13:06:34.856Z,7.78
2022-12-26T13:09:20.178Z,4.90
2022-12-26T13:11:58.742Z,13.15
2022-12-26T13:14:30.905Z,8.15
2022-12-26T13:17:03.838Z,9.25
2022-12-26T13:19:40.863Z,8.63
2022-12-26T13:22:14.833Z,7.03
2022-12-26T13:24:49.803Z,8.10
2022-12-26T13:27:23.974Z,8.60
2022-12-26T13:29:50.627Z,9.75
2022-12-26T13:32:24.384Z,4.40
2022-12-26T13:34:54.556Z,11.05
2022-12-26T13:37:39.029Z,4.55
2022-12-26T13:40:27.595Z,11.63
2022-12-26T13:43:32.664Z,6.93
2022-12-26T13:45:59.582Z,8.27
2022-12-26T13:48:26.067Z,4.18
2022-12-26T13:51:33.084Z,7.63
2022-12-26T13:54:10.084Z,7.68
2022-12-26T13:56:46.077Z,9.85
2022-12-26T13:59:21.375Z,8.60
2022-12-26T14:02:17.575Z,5.13
2022-12-26T14:04:58.169Z,7.60
2022-12-26T14:07:41.844Z,5.22
2022-12-26T14:10:45.458Z,6.55
2022-12-26T14:13:38.330Z,7.20
2022-12-26T14:16:45.773Z,8.45
2022-12-26T14:19:24.042Z,11.20
2022-12-26T14:22:14.285Z,8.20
2022-12-26T14:25:02.761Z,4.25
2022-12-26T14:27:32.235Z,5.78
2022-12-26T14:30:15.318Z,9.55
2022-12-26T14:33:22.024Z,3.70
2022-12-26T14:36:22.761Z,4.53
2022-12-26T14:39:05.999Z,8.77
2022-12-26T14:42:26.062Z,6.57
2022-12-26T14:44:56.487Z,5.65
2022-12-26T14:47:44.031Z,6.57
2022-12-26T14:50:32.310Z,5.57
2022-12-26T14:53:20.463Z,5.72
2022-12-26T14:55:58.425Z,10.50
2022-12-26T14:58:31.072Z,4.85
2022-12-26T15:03:46.922Z,7.03
2022-12-26T15:06:19.589Z,5.93
2022-12-26T15:09:20.196Z,5.90
2022-12-26T15:12:19.657Z,9.07
2022-12-26T15:14:58.241Z,5.25
2022-12-26T15:17:54.178Z,4.93
2022-12-26T15:20:26.793Z,5.25
2022-12-26T15:23:09.009Z,7.35
2022-12-26T15:25:46.943Z,5.47
2022-12-26T15:28:28.628Z,4.28
2022-12-26T15:31:25.157Z,6.50
2022-12-26T15:34:06.012Z,8.48
2022-12-26T15:36:44.711Z,3.95
2022-12-26T15:39:20.252Z,7.03
2022-12-26T15:42:04.691Z,6.65
2022-12-26T15:44:45.056Z,5.68
2022-12-26T15:47:48.806Z,5.18
2022-12-26T15:50:21.449Z,3.78
2022-12-26T15:55:59.411Z,10.15
2022-12-26T15:58:45.836Z,7.25
2022-12-26T16:01:12.816Z,7.88
2022-12-26T16:03:56.643Z,8.60
2022-12-26T16:06:41.448Z,7.57
2022-12-26T16:09:41.737Z,6.63
2022-12-26T16:12:22.934Z,6.43
2022-12-26T16:14:50.758Z,4.15
2022-12-26T16:17:21.051Z,6.45
2022-12-26T16:19:50.571Z,8.20
2022-12-26T16:22:43.970Z,7.47
2022-12-26T16:25:14.331Z,5.85
2022-12-26T16:27:41.592Z,5.75
2022-12-26T16:30:16.260Z,10.13
2022-12-26T16:32:43.856Z,4.15
2022-12-26T16:35:19.909Z,10.48
2022-12-26T16:37:47.793Z,19.00
2022-12-26T16:40:17.845Z,8.23
2022-12-26T16:42:54.185Z,11.45
2022-12-26T16:45:22.272Z,13.73
2022-12-26T16:47:49.822Z,15.32
2022-12-26T16:50:19.847Z,13.98
2022-12-26T16:52:47.141Z,12.75
2022-12-26T16:55:36.446Z,15.75
2022-12-26T16:58:22.869Z,5.97
2022-12-26T17:01:00.603Z,9.55
2022-12-26T17:03:34.643Z,9.02
2022-12-26T17:06:09.849Z,5.13
2022-12-26T17:08:41.713Z,2.92
2022-12-26T17:11:08.456Z,2.08
2022-12-26T17:13:35.131Z,6.65
2022-12-26T17:16:10.585Z,4.28
2022-12-26T17:18:48.530Z,7.65
2022-12-26T17:21:34.077Z,8.65
2022-12-26T17:24:09.749Z,7.32
2022-12-26T17:26:38.487Z,12.32
2022-12-26T17:29:05.445Z,5.18
2022-12-26T17:31:37.506Z,7.88
2022-12-26T17:34:13.676Z,14.18
2022-12-26T17:39:27.142Z,13.05
2022-12-26T17:42:00.087Z,12.20
2022-12-26T17:44:52.873Z,8.02
2022-12-26T17:47:25.102Z,8.07
2022-12-26T17:49:53.466Z,11.27
2022-12-26T17:52:23.550Z,4.97
2022-12-26T17:54:51.128Z,4.70
2022-12-26T17:57:21.482Z,7.00
2022-12-26T17:59:48.841Z,6.00
2022-12-26T18:02:15.674Z,8.70
2022-12-26T18:04:42.725Z,9.98
2022-12-26T18:07:30.567Z,6.20
2022-12-26T18:09:58.709Z,5.75
2022-12-26T18:12:25.212Z,8.02
2022-12-26T18:14:54.660Z,10.52
2022-12-26T18:17:26.217Z,8.48
2022-12-26T18:19:52.757Z,8.52
2022-12-26T18:22:19.896Z,7.25
2022-12-26T18:24:46.435Z,8.65
2022-12-26T18:27:22.591Z,7.38
2022-12-26T18:29:50.241Z,8.55
2022-12-26T18:32:33.683Z,7.43
2022-12-26T18:35:00.830Z,12.43
2022-12-26T18:37:29.898Z,13.27
2022-12-26T18:39:56.580Z,10.30
2022-12-26T18:42:23.858Z,8.43
2022-12-26T18:44:50.333Z,9.05
2022-12-26T18:47:19.436Z,10.05
2022-12-26T18:49:46.984Z,11.13
2022-12-26T18:52:17.943Z,10.45
2022-12-26T18:54:45.311Z,12.10
2022-12-26T18:57:17.914Z,9.25
2022-12-26T19:02:19.108Z,9.05
2022-12-26T19:04:48.435Z,8.80
2022-12-26T19:07:16.889Z,10.10
2022-12-26T19:09:44.843Z,11.98
2022-12-26T19:12:11.726Z,9.88
2022-12-26T19:14:38.631Z,5.97
2022-12-26T19:17:05.134Z,10.88
2022-12-26T19:19:32.016Z,11.30
2022-12-26T19:21:58.747Z,7.13
2022-12-26T19:24:25.231Z,12.43
2022-12-26T19:26:51.812Z,8.57
2022-12-26T19:29:18.290Z,14.73
2022-12-26T19:31:45.978Z,15.15
2022-12-26T19:34:12.555Z,7.80
2022-12-26T19:36:39.903Z,12.02
2022-12-26T19:39:06.389Z,8.52
2022-12-26T19:41:32.951Z,9.70
2022-12-26T19:44:00.668Z,14.57
2022-12-26T19:46:28.791Z,10.20
2022-12-26T19:48:55.647Z,11.13
2022-12-26T19:51:22.754Z,13.50
2022-12-26T19:53:49.490Z,12.05
2022-12-26T19:56:23.753Z,10.10
2022-12-26T19:58:56.133Z,11.93
2022-12-26T20:01:26.707Z,16.60
2022-12-26T20:03:58.353Z,10.25
2022-12-26T20:06:26.586Z,9.98
2022-12-26T20:08:57.620Z,16.45
2022-12-26T20:11:28.426Z,11.85
2022-12-26T20:13:55.606Z,12.60
2022-12-26T20:17:03.334Z,6.85
2022-12-26T20:19:11.151Z,7.80
2022-12-26T20:21:38.436Z,8.10
2022-12-26T20:24:05.602Z,10.35
2022-12-26T20:26:32.169Z,13.95
2022-12-26T20:29:01.804Z,12.32
2022-12-26T20:31:31.129Z,9.93
2022-12-26T20:33:58.373Z,9.10
2022-12-26T20:36:27.817Z,10.77
2022-12-26T20:38:57.585Z,12.95
2022-12-26T20:41:24.852Z,17.55
2022-12-26T20:43:52.118Z,12.13
2022-12-26T20:46:25.563Z,9.88
2022-12-26T20:48:53.837Z,10.13
2022-12-26T20:51:23.227Z,12.63
2022-12-26T20:53:50.799Z,11.55
2022-12-26T20:56:17.945Z,7.78
2022-12-26T20:58:44.778Z,7.63
2022-12-26T21:01:13.887Z,18.00
2022-12-26T21:03:40.582Z,5.88
2022-12-26T21:06:09.282Z,12.60
2022-12-26T21:08:36.653Z,10.02
2022-12-26T21:11:09.073Z,14.23
2022-12-26T21:13:37.086Z,9.85
2022-12-26T21:16:21.756Z,16.40
2022-12-26T21:18:49.079Z,13.95
2022-12-26T21:21:21.790Z,15.57
2022-12-26T21:23:49.604Z,7.78
2022-12-26T21:26:16.308Z,10.60
2022-12-26T21:28:42.880Z,9.07
2022-12-26T21:31:11.412Z,9.40
2022-12-26T21:33:44.200Z,12.30
2022-12-26T21:36:13.263Z,8.30
2022-12-26T21:38:40.403Z,10.80
2022-12-26T21:41:08.538Z,9.55
2022-12-26T21:43:35.566Z,9.25
2022-12-26T21:46:11.863Z,13.85
2022-12-26T21:48:38.564Z,6.90
2022-12-26T21:51:09.287Z,12.57
2022-12-26T21:53:37.633Z,16.15
2022-12-26T21:56:05.928Z,9.23
2022-12-26T21:58:52.697Z,11.45
2022-12-26T22:01:21.369Z,10.38
2022-12-26T22:04:06.671Z,10.95
2022-12-26T22:06:33.516Z,14.55
2022-12-26T22:09:00.628Z,15.55
2022-12-26T22:11:46.339Z,11.35
2022-12-26T22:14:13.024Z,8.50
2022-12-26T22:16:39.970Z,12.68
2022-12-26T22:19:07.479Z,13.38
2022-12-26T22:21:34.330Z,9.70
2022-12-26T22:24:01.464Z,15.77
2022-12-26T22:26:29.256Z,11.55
2022-12-26T22:28:59.096Z,10.32
2022-12-26T22:31:34.210Z,11.75
2022-12-26T22:34:03.574Z,12.95
2022-12-26T22:36:30.991Z,8.90
2022-12-26T22:38:59.567Z,9.27
2022-12-26T22:41:27.205Z,10.30
2022-12-26T22:43:55.515Z,15.40
2022-12-26T22:46:24.074Z,11.38
2022-12-26T22:48:50.777Z,12.38
2022-12-26T22:51:19.511Z,7.15
2022-12-26T22:53:47.089Z,8.15
2022-12-26T22:56:13.551Z,13.13
2022-12-26T22:58:40.034Z,9.32
2022-12-26T23:01:15.598Z,10.18
2022-12-26T23:03:42.525Z,14.18
2022-12-26T23:06:21.965Z,9.98
2022-12-26T23:08:50.016Z,14.25
2022-12-26T23:11:16.900Z,8.98
2022-12-26T23:13:44.686Z,10.98
2022-12-26T23:16:23.453Z,11.38
2022-12-26T23:19:13.270Z,11.75
2022-12-26T23:21:41.840Z,10.80
2022-12-26T23:24:11.867Z,16.25
2022-12-26T23:26:39.638Z,14.27
2022-12-26T23:29:25.385Z,12.23
2022-12-26T23:31:52.136Z,16.15
2022-12-26T23:34:18.679Z,12.45
2022-12-26T23:36:45.162Z,15.02
2022-12-26T23:39:11.811Z,12.73
2022-12-26T23:41:38.528Z,11.13
2022-12-26T23:44:05.413Z,9.43
2022-12-26T23:46:32.101Z,9.43
2022-12-26T23:48:58.700Z,9.75
2022-12-26T23:51:25.383Z,11.73
2022-12-26T23:53:51.883Z,11.43
2022-12-26T23:56:18.671Z,12.93
2022-12-26T23:58:45.168Z,11.60
